createdAt,value
2023-01-04T00:02:00.743Z,8.33
2023-01-04T00:04:27.945Z,8.40
2023-01-04T00:06:55.045Z,8.33
2023-01-04T00:09:22.249Z,8.13
2023-01-04T00:11:49.353Z,8.30
2023-01-04T00:14:18.657Z,8.43
2023-01-04T00:16:45.957Z,7.53
2023-01-04T00:19:13.162Z,7.20
2023-01-04T00:21:40.282Z,7.17
2023-01-04T00:24:09.041Z,7.70
2023-01-04T00:26:36.243Z,7.80
2023-01-04T00:29:05.685Z,8.13
2023-01-04T00:31:33.261Z,8.13
2023-01-04T00:34:01.644Z,9.70
2023-01-04T00:36:28.832Z,10.47
2023-01-04T00:39:10.123Z,8.70
2023-01-04T00:44:26.149Z,9.70
2023-01-04T00:46:53.487Z,9.57
2023-01-04T00:49:20.741Z,10.70
2023-01-04T00:51:47.888Z,8.97
2023-01-04T00:54:15.624Z,10.37
2023-01-04T00:56:43.090Z,9.70
2023-01-04T00:59:12.509Z,10.37
2023-01-04T01:01:40.166Z,9.73
2023-01-04T01:04:07.500Z,9.33
2023-01-04T01:06:34.956Z,10.83
2023-01-04T01:09:02.119Z,9.40
2023-01-04T01:11:29.569Z,9.43
2023-01-04T01:13:57.338Z,10.47
2023-01-04T01:16:53.051Z,10.97
2023-01-04T01:19:12.318Z,10.13
2023-01-04T01:21:39.940Z,10.70
2023-01-04T01:24:07.330Z,11.40
2023-01-04T01:26:34.845Z,11.27
2023-01-04T01:29:02.004Z,12.43
2023-01-04T01:31:30.119Z,12.50
2023-01-04T01:33:57.977Z,13.73
2023-01-04T01:36:26.521Z,14.20
2023-01-04T01:38:54.102Z,15.07
2023-01-04T01:41:22.697Z,15.70
2023-01-04T01:43:53.039Z,16.57
2023-01-04T01:46:46.318Z,16.63
2023-01-04T01:49:19.647Z,16.17
2023-01-04T01:51:46.833Z,16.17
2023-01-04T01:54:15.172Z,16.93
2023-01-04T01:56:44.009Z,16.40
2023-01-04T01:59:11.882Z,17.73
2023-01-04T02:01:39.203Z,17.77
2023-01-04T02:04:06.723Z,18.47
2023-01-04T02:06:36.049Z,16.83
2023-01-04T02:09:03.694Z,19.13
2023-01-04T02:11:30.927Z,19.23
2023-01-04T02:14:18.069Z,18.83
2023-01-04T02:16:50.954Z,18.93
2023-01-04T02:19:36.824Z,19.07
2023-01-04T02:22:22.859Z,22.27
2023-01-04T02:24:49.961Z,21.70
2023-01-04T02:27:35.715Z,23.03
2023-01-04T02:30:21.122Z,23.70
2023-01-04T02:33:00.515Z,22.07
2023-01-04T02:35:41.738Z,23.03
2023-01-04T02:38:28.686Z,23.00
2023-01-04T02:41:14.475Z,20.40
2023-01-04T02:44:04.446Z,20.30
2023-01-04T02:46:34.587Z,20.37
2023-01-04T02:49:21.058Z,21.13
2023-01-04T02:51:48.428Z,20.37
2023-01-04T02:54:18.115Z,20.63
2023-01-04T02:57:06.317Z,21.67
2023-01-04T02:59:33.459Z,21.77
2023-01-04T03:02:45.168Z,22.13
2023-01-04T03:05:43.485Z,21.03
2023-01-04T03:08:20.050Z,21.27
2023-01-04T03:10:55.167Z,22.23
2023-01-04T03:13:26.254Z,20.70
2023-01-04T03:16:02.398Z,21.10
2023-01-04T03:18:34.697Z,20.67
2023-01-04T03:21:03.490Z,20.70
2023-01-04T03:23:52.064Z,21.53
2023-01-04T03:26:40.012Z,21.03
2023-01-04T03:29:28.948Z,21.57
2023-01-04T03:32:37.658Z,21.63
2023-01-04T03:35:22.932Z,21.17
2023-01-04T03:38:35.855Z,20.77
2023-01-04T03:41:23.607Z,20.50
2023-01-04T03:44:13.494Z,19.77
2023-01-04T03:47:07.576Z,18.10
2023-01-04T03:49:40.350Z,18.57
2023-01-04T03:52:08.542Z,17.13
2023-01-04T03:54:38.432Z,17.90
2023-01-04T03:57:06.311Z,16.27
2023-01-04T03:59:35.904Z,16.47
2023-01-04T04:02:03.698Z,14.90
2023-01-04T04:04:49.662Z,14.87
2023-01-04T04:07:35.345Z,14.63
2023-01-04T04:10:02.459Z,14.40
2023-01-04T04:12:29.641Z,13.07
2023-01-04T04:14:56.733Z,13.13
2023-01-04T04:17:23.848Z,13.10
2023-01-04T04:19:50.949Z,12.23
2023-01-04T04:22:18.179Z,11.67
2023-01-04T04:24:45.316Z,11.70
2023-01-04T04:27:12.451Z,11.70
2023-01-04T04:29:39.551Z,10.80
2023-01-04T04:32:06.785Z,10.43
2023-01-04T04:34:33.916Z,9.43
2023-01-04T04:37:01.035Z,9.57
2023-01-04T04:39:28.124Z,8.80
2023-01-04T04:41:55.228Z,8.70
2023-01-04T04:44:22.489Z,8.87
2023-01-04T04:46:50.037Z,8.07
2023-01-04T04:49:17.212Z,7.90
2023-01-04T04:51:45.173Z,7.73
2023-01-04T04:54:15.480Z,7.50
2023-01-04T04:56:42.599Z,7.47
2023-01-04T04:59:09.759Z,7.10
2023-01-04T05:01:37.071Z,6.70
2023-01-04T05:04:04.440Z,6.60
2023-01-04T05:06:31.570Z,6.27
2023-01-04T05:08:58.777Z,6.13
2023-01-04T05:11:44.714Z,6.57
2023-01-04T05:14:11.839Z,6.20
2023-01-04T05:16:39.016Z,6.40
2023-01-04T05:19:06.200Z,6.60
2023-01-04T05:21:33.310Z,6.40
2023-01-04T05:24:00.404Z,6.20
2023-01-04T05:26:27.525Z,6.27
2023-01-04T05:28:54.664Z,6.20
2023-01-04T05:31:22.422Z,5.90
2023-01-04T05:33:49.600Z,5.93
2023-01-04T05:36:16.770Z,5.60
2023-01-04T05:38:43.986Z,6.37
2023-01-04T05:41:29.738Z,5.77
2023-01-04T05:43:56.907Z,5.10
2023-01-04T05:46:24.250Z,5.00
2023-01-04T05:48:51.938Z,5.10
2023-01-04T05:51:19.122Z,5.50
2023-01-04T05:53:46.230Z,5.23
2023-01-04T05:56:13.312Z,5.50
2023-01-04T05:58:40.445Z,4.70
2023-01-04T06:01:08.134Z,5.17
2023-01-04T06:03:35.489Z,5.00
2023-01-04T06:06:02.711Z,5.43
2023-01-04T06:08:29.814Z,4.93
2023-01-04T06:10:56.983Z,5.23
2023-01-04T06:13:24.164Z,4.83
2023-01-04T06:15:51.261Z,3.90
2023-01-04T06:18:18.396Z,5.33
2023-01-04T06:20:45.488Z,4.70
2023-01-04T06:23:12.595Z,4.70
2023-01-04T06:25:39.719Z,4.80
2023-01-04T06:28:06.873Z,4.60
2023-01-04T06:30:34.039Z,4.90
2023-01-04T06:33:01.169Z,3.67
2023-01-04T06:35:28.265Z,4.73
2023-01-04T06:37:55.375Z,4.77
2023-01-04T06:40:22.471Z,4.40
2023-01-04T06:42:49.592Z,4.47
2023-01-04T06:45:16.998Z,4.13
2023-01-04T06:47:44.519Z,4.50
2023-01-04T06:50:12.190Z,4.63
2023-01-04T06:52:39.466Z,3.87
2023-01-04T06:55:09.504Z,3.93
2023-01-04T06:57:36.803Z,4.03
2023-01-04T07:00:05.337Z,3.53
2023-01-04T07:02:32.607Z,4.33
2023-01-04T07:04:59.927Z,3.90
2023-01-04T07:07:27.100Z,3.70
2023-01-04T07:09:54.248Z,3.80
2023-01-04T07:12:21.375Z,4.17
2023-01-04T07:14:48.503Z,4.13
2023-01-04T07:17:15.636Z,4.30
2023-01-04T07:19:42.761Z,4.40
2023-01-04T07:22:09.863Z,4.13
2023-01-04T07:24:36.957Z,4.00
2023-01-04T07:27:04.107Z,3.43
2023-01-04T07:29:31.230Z,4.20
2023-01-04T07:31:58.396Z,3.80
2023-01-04T07:34:26.506Z,3.93
2023-01-04T07:36:53.906Z,3.50
2023-01-04T07:39:21.785Z,3.60
2023-01-04T07:41:49.584Z,3.60
2023-01-04T07:44:18.177Z,3.43
2023-01-04T07:46:45.500Z,3.30
2023-01-04T07:49:17.381Z,3.30
2023-01-04T07:51:45.647Z,3.13
2023-01-04T07:54:12.969Z,2.87
2023-01-04T07:56:40.235Z,3.27
2023-01-04T07:59:08.742Z,2.33
2023-01-04T08:01:37.968Z,2.67
2023-01-04T08:04:06.278Z,2.37
2023-01-04T08:06:33.800Z,3.10
2023-01-04T08:09:01.010Z,2.87
2023-01-04T08:11:28.315Z,2.73
2023-01-04T08:13:55.591Z,2.03
2023-01-04T08:16:24.689Z,2.50
2023-01-04T08:18:55.686Z,2.27
2023-01-04T08:21:23.227Z,2.33
2023-01-04T08:23:50.377Z,2.03
2023-01-04T08:26:17.667Z,2.20
2023-01-04T08:28:45.159Z,2.10
2023-01-04T08:31:17.518Z,2.40
2023-01-04T08:33:45.382Z,1.90
2023-01-04T08:36:14.161Z,2.10
2023-01-04T08:38:59.223Z,2.20
2023-01-04T08:44:14.962Z,1.90
2023-01-04T08:46:42.175Z,2.13
2023-01-04T08:49:09.434Z,2.17
2023-01-04T08:51:36.565Z,1.90
2023-01-04T08:54:03.767Z,2.30
2023-01-04T08:56:30.874Z,2.40
2023-01-04T08:58:58.054Z,1.93
2023-01-04T09:01:25.310Z,2.70
2023-01-04T09:03:52.481Z,2.17
2023-01-04T09:06:19.581Z,1.90
2023-01-04T09:08:46.728Z,2.37
2023-01-04T09:11:18.476Z,1.93
2023-01-04T09:13:46.008Z,1.70
2023-01-04T09:16:19.244Z,2.00
2023-01-04T09:18:47.042Z,1.77
2023-01-04T09:21:15.285Z,1.63
2023-01-04T09:23:43.064Z,2.00
2023-01-04T09:26:14.331Z,1.70
2023-01-04T09:28:41.949Z,1.67
2023-01-04T09:31:10.663Z,1.70
2023-01-04T09:34:12.091Z,1.47
2023-01-04T09:36:25.222Z,1.40
2023-01-04T09:38:52.605Z,2.03
2023-01-04T09:41:29.024Z,1.80
2023-01-04T09:44:03.810Z,1.40
2023-01-04T09:46:38.193Z,1.80
2023-01-04T09:49:17.513Z,1.70
2023-01-04T09:51:47.665Z,1.70
2023-01-04T09:54:17.160Z,1.30
2023-01-04T09:56:50.367Z,1.30
2023-01-04T09:59:18.856Z,1.50
2023-01-04T10:01:48.647Z,1.40
2023-01-04T10:04:21.442Z,1.40
2023-01-04T10:06:48.623Z,1.40
2023-01-04T10:09:17.241Z,1.40
2023-01-04T10:11:47.650Z,1.43
2023-01-04T10:14:31.751Z,1.00
2023-01-04T10:17:12.828Z,1.50
2023-01-04T10:21:14.549Z,1.20
2023-01-04T10:22:41.606Z,1.50
2023-01-04T10:25:27.284Z,1.13
2023-01-04T10:28:13.227Z,1.00
2023-01-04T10:30:46.591Z,1.57
2023-01-04T10:33:15.156Z,1.20
2023-01-04T10:35:44.324Z,1.40
2023-01-04T10:38:16.485Z,1.40
2023-01-04T10:40:45.222Z,1.00
2023-01-04T10:43:26.242Z,1.17
2023-01-04T10:46:05.417Z,1.00
2023-01-04T10:48:50.382Z,1.33
2023-01-04T10:51:22.327Z,1.27
2023-01-04T10:53:51.998Z,1.10
2023-01-04T10:56:25.677Z,1.07
2023-01-04T10:58:54.408Z,1.30
2023-01-04T11:01:23.846Z,1.43
2023-01-04T11:03:57.146Z,1.00
2023-01-04T11:06:26.792Z,1.13
2023-01-04T11:09:00.183Z,1.10
2023-01-04T11:11:35.118Z,1.20
2023-01-04T11:14:02.367Z,1.10
2023-01-04T11:16:30.590Z,1.40
2023-01-04T11:18:57.972Z,0.90
2023-01-04T11:21:31.049Z,1.10
2023-01-04T11:24:22.105Z,1.03
2023-01-04T11:26:47.853Z,1.00
2023-01-04T11:29:38.317Z,1.30
2023-01-04T11:32:07.174Z,1.20
2023-01-04T11:34:48.849Z,1.10
2023-01-04T11:37:24.597Z,1.40
2023-01-04T11:39:51.770Z,1.30
2023-01-04T11:42:20.891Z,1.37
2023-01-04T11:45:00.365Z,1.70
2023-01-04T11:47:33.265Z,1.33
2023-01-04T11:50:00.670Z,1.40
2023-01-04T11:52:34.885Z,1.30
2023-01-04T11:55:16.778Z,1.20
2023-01-04T11:57:43.964Z,1.27
2023-01-04T12:00:14.867Z,1.43
2023-01-04T12:03:00.766Z,1.43
2023-01-04T12:05:30.907Z,1.70
2023-01-04T12:07:58.824Z,1.53
2023-01-04T12:10:27.683Z,1.60
2023-01-04T12:12:55.549Z,1.63
2023-01-04T12:15:28.339Z,1.80
2023-01-04T12:18:07.341Z,2.00
2023-01-04T12:20:34.530Z,1.70
2023-01-04T12:23:01.717Z,1.70
2023-01-04T12:25:28.870Z,1.80
2023-01-04T12:27:56.188Z,1.60
2023-01-04T12:30:41.933Z,1.70
2023-01-04T12:33:27.640Z,1.87
2023-01-04T12:36:02.855Z,1.40
2023-01-04T12:38:48.599Z,1.60
2023-01-04T12:41:15.765Z,1.40
2023-01-04T12:43:46.956Z,1.40
2023-01-04T12:46:53.290Z,1.63
2023-01-04T12:49:29.911Z,1.70
2023-01-04T12:54:57.970Z,1.50
2023-01-04T12:57:38.013Z,1.60
2023-01-04T13:00:05.635Z,1.70
2023-01-04T13:02:32.836Z,1.80
2023-01-04T13:05:54.851Z,2.00
2023-01-04T13:08:10.394Z,1.73
2023-01-04T13:10:37.491Z,1.80
2023-01-04T13:13:07.677Z,2.17
2023-01-04T13:15:53.166Z,1.90
2023-01-04T13:18:43.412Z,2.00
2023-01-04T13:21:15.933Z,1.60
2023-01-04T13:23:51.388Z,1.90
2023-01-04T13:26:35.047Z,1.90
2023-01-04T13:29:21.418Z,1.97
2023-01-04T13:31:54.783Z,2.50
2023-01-04T13:34:23.802Z,1.80
2023-01-04T13:36:54.819Z,1.80
2023-01-04T13:39:22.200Z,2.00
2023-01-04T13:41:49.471Z,1.80
2023-01-04T13:44:29.270Z,1.90
2023-01-04T13:47:11.482Z,1.80
2023-01-04T13:49:39.869Z,1.77
2023-01-04T13:52:47.325Z,1.83
2023-01-04T13:55:13.987Z,1.83
2023-01-04T13:57:41.132Z,1.80
2023-01-04T14:00:09.847Z,1.80
2023-01-04T14:02:37.196Z,2.30
2023-01-04T14:05:04.568Z,2.10
2023-01-04T14:07:31.730Z,2.13
2023-01-04T14:10:00.683Z,2.60
2023-01-04T14:12:29.138Z,2.03
2023-01-04T14:14:59.248Z,2.00
2023-01-04T14:17:32.552Z,2.10
2023-01-04T14:20:19.906Z,2.33
2023-01-04T14:22:47.132Z,2.50
2023-01-04T14:25:40.727Z,2.53
2023-01-04T14:28:21.678Z,2.70
2023-01-04T14:30:53.202Z,2.90
2023-01-04T14:33:23.234Z,2.90
2023-01-04T14:36:02.316Z,2.70
2023-01-04T14:38:29.537Z,2.77
2023-01-04T14:40:56.703Z,2.73
2023-01-04T14:43:50.045Z,2.57
2023-01-04T14:46:17.263Z,2.43
2023-01-04T14:48:44.426Z,2.87
2023-01-04T14:51:15.224Z,2.70
2023-01-04T14:53:42.376Z,2.70
2023-01-04T14:56:13.605Z,2.50
2023-01-04T14:58:41.093Z,2.50
2023-01-04T15:01:08.811Z,2.17
2023-01-04T15:03:36.106Z,2.03
2023-01-04T15:06:04.420Z,2.20
2023-01-04T15:08:31.991Z,2.40
2023-01-04T15:11:00.362Z,2.10
2023-01-04T15:13:33.424Z,1.90
2023-01-04T15:16:04.001Z,2.20
2023-01-04T15:18:31.153Z,2.00
2023-01-04T15:20:58.299Z,1.93
2023-01-04T15:23:25.394Z,2.40
2023-01-04T15:25:52.485Z,2.00
2023-01-04T15:28:21.697Z,1.60
2023-01-04T15:30:48.886Z,2.00
2023-01-04T15:33:16.057Z,1.67
2023-01-04T15:35:43.189Z,1.80
2023-01-04T15:38:16.025Z,1.70
2023-01-04T15:40:45.039Z,1.60
2023-01-04T15:43:12.125Z,1.50
2023-01-04T15:45:39.997Z,1.67
2023-01-04T15:48:08.555Z,1.80
2023-01-04T15:50:36.701Z,1.60
2023-01-04T15:53:04.180Z,1.73
2023-01-04T15:55:36.008Z,1.33
2023-01-04T15:58:03.947Z,1.60
2023-01-04T16:00:32.000Z,1.63
2023-01-04T16:02:59.254Z,1.40
2023-01-04T16:05:26.486Z,1.63
2023-01-04T16:07:53.626Z,1.47
2023-01-04T16:10:20.873Z,1.47
2023-01-04T16:12:54.694Z,1.47
2023-01-04T16:15:24.094Z,1.53
2023-01-04T16:17:51.230Z,1.13
2023-01-04T16:20:18.987Z,1.60
2023-01-04T16:22:46.211Z,1.50
2023-01-04T16:25:13.439Z,1.90
2023-01-04T16:27:41.127Z,1.40
2023-01-04T16:30:09.928Z,1.33
2023-01-04T16:32:37.291Z,1.30
2023-01-04T16:35:04.758Z,1.50
2023-01-04T16:37:31.944Z,1.50
2023-01-04T16:40:07.696Z,1.60
2023-01-04T16:42:36.281Z,1.50
2023-01-04T16:45:03.455Z,1.63
2023-01-04T16:47:38.006Z,1.80
2023-01-04T16:50:05.439Z,1.50
2023-01-04T16:52:32.575Z,1.70
2023-01-04T16:54:59.661Z,1.60
2023-01-04T16:57:27.090Z,1.90
2023-01-04T16:59:54.306Z,1.63
2023-01-04T17:02:23.112Z,1.60
2023-01-04T17:04:55.385Z,1.50
2023-01-04T17:07:22.941Z,1.60
2023-01-04T17:09:50.947Z,1.80
2023-01-04T17:17:53.666Z,1.40
2023-01-04T17:20:20.822Z,1.33
2023-01-04T17:22:47.929Z,1.20
2023-01-04T17:25:15.145Z,1.40
2023-01-04T17:27:42.277Z,1.13
2023-01-04T17:30:10.017Z,1.10
2023-01-04T17:32:37.132Z,1.13
2023-01-04T17:35:04.395Z,1.30
2023-01-04T17:37:31.497Z,1.20
2023-01-04T17:39:58.621Z,1.10
2023-01-04T17:42:25.767Z,1.00
2023-01-04T17:44:53.451Z,1.10
2023-01-04T17:47:20.616Z,1.20
2023-01-04T17:49:47.740Z,0.93
2023-01-04T17:52:20.985Z,1.10
2023-01-04T17:54:49.445Z,1.00
2023-01-04T17:57:16.553Z,1.00
2023-01-04T17:59:43.750Z,1.00
2023-01-04T18:02:11.547Z,1.10
2023-01-04T18:04:38.721Z,0.90
2023-01-04T18:07:05.815Z,1.00
2023-01-04T18:09:32.916Z,0.90
2023-01-04T18:12:00.071Z,0.87
2023-01-04T18:14:27.838Z,1.00
2023-01-04T18:16:58.803Z,0.90
2023-01-04T18:19:26.877Z,1.00
2023-01-04T18:21:54.053Z,0.90
2023-01-04T18:24:38.185Z,0.90
2023-01-04T18:27:23.795Z,0.90
2023-01-04T18:29:53.398Z,0.90
2023-01-04T18:32:21.078Z,0.90
2023-01-04T18:34:48.299Z,0.80
2023-01-04T18:37:16.526Z,1.10
2023-01-04T18:39:43.795Z,1.10
2023-01-04T18:42:10.935Z,0.90
2023-01-04T18:44:43.784Z,1.10
2023-01-04T18:47:14.898Z,1.00
2023-01-04T18:49:42.109Z,0.90
2023-01-04T18:52:09.302Z,0.80
2023-01-04T18:54:36.489Z,1.00
2023-01-04T18:57:03.641Z,0.70
2023-01-04T18:59:30.969Z,0.80
2023-01-04T19:02:02.175Z,0.83
2023-01-04T19:04:30.991Z,0.90
2023-01-04T19:06:58.248Z,0.80
2023-01-04T19:09:25.387Z,0.83
2023-01-04T19:11:52.509Z,0.90
2023-01-04T19:14:19.675Z,0.90
2023-01-04T19:16:46.860Z,0.90
2023-01-04T19:19:13.976Z,0.73
2023-01-04T19:21:41.166Z,0.70
2023-01-04T19:24:08.322Z,0.87
2023-01-04T19:26:35.434Z,0.80
2023-01-04T19:29:02.771Z,0.80
2023-01-04T19:31:29.891Z,0.70
2023-01-04T19:33:57.073Z,0.87
2023-01-04T19:36:24.245Z,0.83
2023-01-04T19:38:51.405Z,0.63
2023-01-04T19:41:21.208Z,0.73
2023-01-04T19:43:48.440Z,0.70
2023-01-04T19:46:16.050Z,0.80
2023-01-04T19:48:43.722Z,0.73
2023-01-04T19:51:15.164Z,0.80
2023-01-04T19:53:42.951Z,0.80
2023-01-04T19:56:10.896Z,0.60
2023-01-04T19:58:38.494Z,0.80
2023-01-04T20:01:06.146Z,0.60
2023-01-04T20:03:33.895Z,0.70
2023-01-04T20:06:02.561Z,0.70
2023-01-04T20:08:29.798Z,0.63
2023-01-04T20:10:57.648Z,0.60
2023-01-04T20:13:24.805Z,0.63
2023-01-04T20:15:52.319Z,0.70
2023-01-04T20:18:19.954Z,0.60
2023-01-04T20:20:47.495Z,0.57
2023-01-04T20:23:15.090Z,0.53
2023-01-04T20:25:43.374Z,0.60
2023-01-04T20:28:10.785Z,0.60
2023-01-04T20:30:38.622Z,0.70
2023-01-04T20:33:05.994Z,0.70
2023-01-04T20:35:33.321Z,0.83
2023-01-04T20:38:00.442Z,0.73
2023-01-04T20:40:28.399Z,0.90
2023-01-04T20:43:14.214Z,0.83
2023-01-04T20:45:42.076Z,0.80
2023-01-04T20:48:09.290Z,0.90
2023-01-04T20:50:36.743Z,0.80
2023-01-04T20:53:04.352Z,0.63
2023-01-04T20:55:31.966Z,0.70
2023-01-04T20:57:59.214Z,0.70
2023-01-04T21:00:26.385Z,0.63
2023-01-04T21:02:53.657Z,0.80
2023-01-04T21:05:20.916Z,0.70
2023-01-04T21:07:48.076Z,0.80
2023-01-04T21:10:15.201Z,0.60
2023-01-04T21:12:42.458Z,0.90
2023-01-04T21:15:09.789Z,0.97
2023-01-04T21:17:37.220Z,0.80
2023-01-04T21:20:04.937Z,0.80
2023-01-04T21:22:32.059Z,0.87
2023-01-04T21:24:59.228Z,0.60
2023-01-04T21:27:26.963Z,0.80
2023-01-04T21:29:54.081Z,0.70
2023-01-04T21:32:21.185Z,0.90
2023-01-04T21:34:48.273Z,0.70
2023-01-04T21:37:15.384Z,0.87
2023-01-04T21:39:42.499Z,0.70
2023-01-04T21:42:09.595Z,0.70
2023-01-04T21:44:36.731Z,0.90
2023-01-04T21:47:03.840Z,0.70
2023-01-04T21:49:31.010Z,0.63
2023-01-04T21:51:58.137Z,0.70
2023-01-04T21:54:25.307Z,0.70
2023-01-04T21:56:52.483Z,0.60
2023-01-04T21:59:19.649Z,0.40
2023-01-04T22:01:46.844Z,0.60
2023-01-04T22:04:14.126Z,0.60
2023-01-04T22:06:42.096Z,0.60
2023-01-04T22:09:09.304Z,0.60
2023-01-04T22:11:36.927Z,0.40
2023-01-04T22:14:04.841Z,0.70
2023-01-04T22:16:32.039Z,0.60
2023-01-04T22:18:59.220Z,0.70
2023-01-04T22:21:27.362Z,0.70
2023-01-04T22:23:54.668Z,0.70
2023-01-04T22:26:21.782Z,0.60
2023-01-04T22:28:48.964Z,0.60
2023-01-04T22:31:16.271Z,0.70
2023-01-04T22:33:43.766Z,0.80
2023-01-04T22:36:19.143Z,0.60
2023-01-04T22:38:48.695Z,0.70
2023-01-04T22:41:17.075Z,0.80
2023-01-04T22:43:44.801Z,0.80
2023-01-04T22:46:13.844Z,0.77
2023-01-04T22:48:41.034Z,0.70
2023-01-04T22:51:08.556Z,0.60
2023-01-04T22:53:35.708Z,0.80
2023-01-04T22:56:19.600Z,0.70
2023-01-04T22:58:52.397Z,0.90
2023-01-04T23:01:20.919Z,0.90
2023-01-04T23:03:48.874Z,0.80
2023-01-04T23:06:16.290Z,0.90
2023-01-04T23:08:43.537Z,1.07
2023-01-04T23:11:12.450Z,0.90
2023-01-04T23:13:39.607Z,1.00
2023-01-04T23:16:07.598Z,1.10
2023-01-04T23:18:35.413Z,0.97
2023-01-04T23:21:02.990Z,1.10
2023-01-04T23:23:30.211Z,1.03
2023-01-04T23:25:57.391Z,1.17
2023-01-04T23:28:25.602Z,1.30
2023-01-04T23:30:52.722Z,1.10
2023-01-04T23:33:19.823Z,1.40
2023-01-04T23:35:46.932Z,1.30
2023-01-04T23:38:14.056Z,1.27
2023-01-04T23:40:41.152Z,1.27
2023-01-04T23:43:08.246Z,1.20
2023-01-04T23:45:35.320Z,1.10
2023-01-04T23:48:02.427Z,0.93
2023-01-04T23:50:29.493Z,1.00
2023-01-04T23:52:56.589Z,1.10
2023-01-04T23:55:23.705Z,0.93
2023-01-04T23:57:53.590Z,1.00
